Time;durP1;ratioP1;P1;durP2;ratioP2;P2;SDS_P1;SDS_P2;PMS_P1;PMS_P2;Temp;Humidity;BMP_temperature;BMP_pressure;BME280_temperature;BME280_humidity;BME280_pressure;Samples;Min_cycle;Max_cycle;Signal;HPM_P1;HPM_P2
2022/12/04 00:01:22;;;;;;;56.57;26.40;;;1.80;99.90;;;;;;5096100;28;20192;-73
2022/12/04 00:03:52;;;;;;;60.87;28.97;;;1.70;99.90;;;;;;5096034;28;20175;-73
2022/12/04 00:06:19;;;;;;;56.90;26.60;;;1.60;99.90;;;;;;5095795;28;20168;-72
2022/12/04 00:08:46;;;;;;;61.83;28.00;;;1.60;99.90;;;;;;5096176;28;20175;-73
2022/12/04 00:11:14;;;;;;;63.80;29.27;;;1.60;99.90;;;;;;5095863;28;20242;-72
2022/12/04 00:13:40;;;;;;;60.97;28.80;;;1.50;99.90;;;;;;5095803;28;20170;-73
2022/12/04 00:16:07;;;;;;;54.47;25.93;;;1.40;99.90;;;;;;5095732;28;20558;-72
2022/12/04 00:18:33;;;;;;;49.13;20.67;;;1.40;99.90;;;;;;5077685;28;20535;-73
2022/12/04 00:21:03;;;;;;;61.10;28.43;;;1.40;99.90;;;;;;5095387;28;20182;-72
2022/12/04 00:23:28;;;;;;;57.23;26.47;;;1.30;99.90;;;;;;5095079;28;20168;-72
2022/12/04 00:26:02;;;;;;;58.10;25.63;;;1.40;99.90;;;;;;5095659;28;20184;-72
2022/12/04 00:28:28;;;;;;;50.83;25.10;;;1.30;99.90;;;;;;5095642;28;20648;-72
2022/12/04 00:30:54;;;;;;;65.13;29.27;;;1.30;99.90;;;;;;5095578;28;20255;-73
2022/12/04 00:33:20;;;;;;;56.80;26.73;;;1.40;99.90;;;;;;5095472;28;20177;-71
2022/12/04 00:35:46;;;;;;;62.47;27.93;;;1.30;99.90;;;;;;5093896;28;20182;-72
2022/12/04 00:38:11;;;;;;;59.73;27.47;;;1.30;99.90;;;;;;5095484;28;20637;-72
2022/12/04 00:40:37;;;;;;;58.03;28.23;;;1.30;99.90;;;;;;5095434;28;20179;-71
2022/12/04 00:43:02;;;;;;;59.73;28.17;;;1.20;99.90;;;;;;5095234;28;20206;-72
2022/12/04 00:45:28;;;;;;;59.50;28.03;;;1.30;99.90;;;;;;5095202;28;20194;-73
2022/12/04 00:47:54;;;;;;;61.63;29.03;;;1.20;99.90;;;;;;5095107;28;20178;-72
2022/12/04 00:50:19;;;;;;;61.40;28.20;;;1.20;99.90;;;;;;5094922;28;20201;-72
2022/12/04 00:52:45;;;;;;;59.87;28.27;;;1.30;99.90;;;;;;5095234;28;20682;-72
2022/12/04 00:55:10;;;;;;;53.60;24.60;;;1.20;99.90;;;;;;5095124;28;20538;-72
2022/12/04 00:57:36;;;;;;;55.47;23.37;;;1.20;99.90;;;;;;5095069;28;20213;-72
2022/12/04 01:00:03;;;;;;;63.50;26.20;;;1.40;99.90;;;;;;5094882;28;20360;-72
2022/12/04 01:02:29;;;;;;;63.67;27.93;;;1.30;99.90;;;;;;5094719;28;20216;-72
2022/12/04 01:04:55;;;;;;;62.90;27.10;;;1.30;99.90;;;;;;5094623;28;20167;-72
2022/12/04 01:07:21;;;;;;;57.13;27.27;;;1.30;99.90;;;;;;5094879;28;20170;-72
2022/12/04 01:09:46;;;;;;;61.77;28.63;;;1.40;99.90;;;;;;5094661;28;20270;-72
2022/12/04 01:12:12;;;;;;;61.03;28.53;;;1.40;99.90;;;;;;5094912;28;20633;-71
2022/12/04 01:14:37;;;;;;;64.27;28.07;;;1.30;99.90;;;;;;5094909;28;20178;-72
2022/12/04 01:17:03;;;;;;;63.40;28.93;;;1.40;99.90;;;;;;5094688;28;20174;-72
2022/12/04 01:19:29;;;;;;;59.40;27.27;;;1.40;99.90;;;;;;5094376;28;20280;-71
2022/12/04 01:21:54;;;;;;;60.37;28.20;;;1.40;99.90;;;;;;5094646;28;20217;-71
2022/12/04 01:24:20;;;;;;;60.83;29.03;;;1.40;99.90;;;;;;5094542;28;20171;-72
2022/12/04 01:26:45;;;;;;;52.27;26.73;;;1.40;99.90;;;;;;5094590;28;20531;-72
2022/12/04 01:29:11;;;;;;;62.03;28.60;;;1.40;99.90;;;;;;5094543;28;20182;-72
2022/12/04 01:31:37;;;;;;;63.33;28.43;;;1.40;99.90;;;;;;5094441;28;20180;-71
2022/12/04 01:34:03;;;;;;;57.30;26.00;;;1.30;99.90;;;;;;5093114;28;20258;-72
2022/12/04 01:36:28;;;;;;;55.73;24.87;;;1.20;99.90;;;;;;5094325;28;20178;-72
2022/12/04 01:38:55;;;;;;;58.80;27.33;;;1.20;99.90;;;;;;5094442;28;20634;-71
2022/12/04 01:41:23;;;;;;;61.93;27.30;;;1.20;99.90;;;;;;5094275;28;20208;-71
2022/12/04 01:44:09;;;;;;;58.20;27.47;;;1.20;99.90;;;;;;5094081;28;20273;-72
2022/12/04 01:46:34;;;;;;;61.00;26.13;;;1.20;99.90;;;;;;5094233;28;20167;-72
2022/12/04 01:49:01;;;;;;;62.20;28.93;;;1.20;99.90;;;;;;5093731;28;20500;-72
2022/12/04 01:51:36;;;;;;;63.37;28.37;;;1.10;99.90;;;;;;5094156;28;20173;-72
2022/12/04 01:54:06;;;;;;;50.10;22.50;;;1.30;99.90;;;;;;5094102;28;20709;-72
2022/12/04 01:56:37;;;;;;;56.13;25.30;;;1.20;99.90;;;;;;5093752;28;20195;-72
2022/12/04 01:59:05;;;;;;;56.37;25.83;;;1.20;99.90;;;;;;5093963;28;20248;-72
2022/12/04 02:01:41;;;;;;;59.20;27.03;;;1.20;99.90;;;;;;5094033;28;20213;-72
2022/12/04 02:04:06;;;;;;;59.57;24.57;;;1.20;99.90;;;;;;5093675;28;20168;-71
2022/12/04 02:06:32;;;;;;;64.37;23.47;;;1.20;99.90;;;;;;5094120;28;20196;-72
2022/12/04 02:08:58;;;;;;;61.63;28.10;;;1.20;99.90;;;;;;5093625;28;20194;-72
2022/12/04 02:11:26;;;;;;;64.27;29.90;;;1.20;99.90;;;;;;5093445;28;20267;-72
2022/12/04 02:14:26;;;;;;;55.60;25.27;;;1.20;99.90;;;;;;5075754;28;20534;-72
2022/12/04 02:17:00;;;;;;;63.33;29.30;;;1.10;99.90;;;;;;5093609;28;20162;-72
2022/12/04 02:19:46;;;;;;;59.23;26.47;;;1.20;99.90;;;;;;5093621;28;20176;-72
2022/12/04 02:22:40;;;;;;;61.90;26.83;;;1.20;99.90;;;;;;5093603;28;20214;-72
2022/12/04 02:25:33;;;;;;;63.03;27.87;;;1.20;99.90;;;;;;5093619;28;20178;-72
2022/12/04 02:28:21;;;;;;;61.67;27.63;;;1.30;99.90;;;;;;5093637;28;20234;-73
2022/12/04 02:30:49;;;;;;;64.93;29.17;;;1.30;99.90;;;;;;5093460;28;20702;-71
2022/12/04 02:33:20;;;;;;;62.03;27.63;;;1.30;99.90;;;;;;5093171;28;20173;-72
2022/12/04 02:35:53;;;;;;;60.47;28.47;;;1.30;99.90;;;;;;5093509;28;20175;-73
2022/12/04 02:38:36;;;;;;;61.80;27.57;;;1.30;99.90;;;;;;5093385;28;20163;-73
2022/12/04 02:41:26;;;;;;;63.23;27.17;;;1.30;99.90;;;;;;5093409;28;20179;-70
2022/12/04 02:44:09;;;;;;;60.80;27.97;;;1.40;99.90;;;;;;5093306;28;20198;-72
2022/12/04 02:46:41;;;;;;;68.60;29.17;;;1.40;99.90;;;;;;5097644;28;20182;-71
2022/12/04 02:49:13;;;;;;;54.23;23.77;;;1.40;99.90;;;;;;5100071;28;20170;-72
2022/12/04 02:51:41;;;;;;;63.07;24.13;;;1.40;99.90;;;;;;5100089;28;20239;-72
2022/12/04 02:54:13;;;;;;;62.47;27.93;;;1.50;99.90;;;;;;5100102;28;20163;-72
2022/12/04 02:56:42;;;;;;;62.97;28.63;;;1.50;99.90;;;;;;5100105;28;20179;-72
2022/12/04 02:59:25;;;;;;;71.57;28.97;;;1.50;99.90;;;;;;5099838;28;20204;-72
2022/12/04 03:01:55;;;;;;;61.37;25.10;;;1.50;99.90;;;;;;5099637;28;20208;-72
2022/12/04 03:04:25;;;;;;;61.10;28.20;;;1.50;99.90;;;;;;5099780;28;20208;-72
2022/12/04 03:06:56;;;;;;;52.53;21.77;;;1.50;99.90;;;;;;5100116;28;20220;-72
2022/12/04 03:09:43;;;;;;;46.67;21.43;;;1.50;99.90;;;;;;5099604;28;20199;-72
2022/12/04 03:12:17;;;;;;;66.53;28.93;;;1.50;99.90;;;;;;5099851;28;20663;-72
2022/12/04 03:14:53;;;;;;;56.80;24.67;;;1.50;99.90;;;;;;5099757;28;20179;-72
2022/12/04 03:17:44;;;;;;;62.23;27.97;;;1.50;99.90;;;;;;5100239;28;20175;-71
2022/12/04 03:20:14;;;;;;;65.90;29.40;;;1.60;99.90;;;;;;5081537;28;20523;-71
2022/12/04 03:22:42;;;;;;;61.20;29.03;;;1.50;99.90;;;;;;5099842;28;20199;-71
2022/12/04 03:25:09;;;;;;;63.60;27.33;;;1.70;99.90;;;;;;5099533;28;20288;-71
2022/12/04 03:27:59;;;;;;;61.00;28.33;;;1.60;99.90;;;;;;5099709;28;20170;-72
2022/12/04 03:30:29;;;;;;;65.53;28.83;;;1.60;99.90;;;;;;5099424;28;20199;-71
2022/12/04 03:33:06;;;;;;;64.70;27.03;;;1.60;99.90;;;;;;5099697;28;20260;-71
2022/12/04 03:35:47;;;;;;;64.07;29.43;;;1.60;99.90;;;;;;5081368;28;20275;-71
2022/12/04 03:38:21;;;;;;;47.97;20.00;;;1.70;99.90;;;;;;5099467;28;20178;-71
2022/12/04 03:40:55;;;;;;;51.47;23.50;;;1.60;99.90;;;;;;5099447;28;20507;-72
2022/12/04 03:43:42;;;;;;;64.60;28.83;;;1.60;99.90;;;;;;5099516;28;20205;-72
2022/12/04 03:46:32;;;;;;;62.90;29.23;;;1.60;99.90;;;;;;5099493;28;20168;-71
2022/12/04 03:49:43;;;;;;;60.90;27.80;;;1.60;99.90;;;;;;5098668;28;20189;-72
2022/12/04 03:52:27;;;;;;;57.93;27.23;;;1.70;99.90;;;;;;5017419;28;20173;-72
2022/12/04 03:55:00;;;;;;;64.53;26.93;;;1.60;99.90;;;;;;5017214;28;20181;-72
2022/12/04 03:57:31;;;;;;;57.00;26.33;;;1.70;99.90;;;;;;5014763;28;20176;-72
2022/12/04 04:00:14;;;;;;;55.13;24.73;;;1.70;99.90;;;;;;5013809;28;20205;-72
2022/12/04 04:02:46;;;;;;;61.47;27.10;;;1.70;99.90;;;;;;5013954;28;20217;-72
2022/12/04 04:05:13;;;;;;;55.27;25.57;;;1.70;99.90;;;;;;5014178;28;20174;-72
2022/12/04 04:08:24;;;;;;;60.70;25.87;;;1.70;99.90;;;;;;4997409;28;20543;-71
2022/12/04 04:10:42;;;;;;;64.40;29.53;;;1.70;99.90;;;;;;5013519;28;20392;-71
2022/12/04 04:24:37;;;;;;;54.10;25.30;;;1.80;99.90;;;;;;5013794;28;20268;-72
2022/12/04 04:27:03;;;;;;;58.93;26.53;;;1.90;99.90;;;;;;5085688;28;20186;-71
2022/12/04 04:29:29;;;;;;;54.97;25.40;;;1.80;99.90;;;;;;5095343;28;20170;-71
2022/12/04 04:32:12;;;;;;;52.20;26.53;;;1.80;99.90;;;;;;5095631;28;20175;-71
2022/12/04 04:34:46;;;;;;;51.70;23.40;;;1.80;99.90;;;;;;5095552;28;20181;-71
2022/12/04 04:37:34;;;;;;;58.07;26.37;;;1.80;99.90;;;;;;5095475;28;20897;-72
2022/12/04 04:40:04;;;;;;;58.53;26.17;;;1.80;99.90;;;;;;5095653;28;20181;-71
2022/12/04 04:42:33;;;;;;;47.40;21.47;;;1.90;99.90;;;;;;5095053;28;20304;-71
2022/12/04 04:45:24;;;;;;;57.70;27.37;;;1.80;99.90;;;;;;5095133;28;20187;-71
2022/12/04 04:48:05;;;;;;;60.37;26.97;;;1.80;99.90;;;;;;5095553;28;20702;-72
2022/12/04 04:50:32;;;;;;;61.57;27.70;;;1.90;99.90;;;;;;5077113;28;20271;-72
2022/12/04 04:53:02;;;;;;;56.00;26.83;;;1.90;99.90;;;;;;5095175;28;20376;-71
2022/12/04 04:55:33;;;;;;;57.97;24.90;;;2.00;99.90;;;;;;5095294;28;20176;-72
2022/12/04 04:58:20;;;;;;;58.67;25.00;;;2.00;99.90;;;;;;5094622;28;20254;-72
2022/12/04 05:00:53;;;;;;;56.57;27.33;;;2.00;99.90;;;;;;5094977;28;20393;-72
2022/12/04 05:03:19;;;;;;;55.53;26.03;;;1.90;99.90;;;;;;5095162;28;20323;-72
2022/12/04 05:05:45;;;;;;;58.90;27.47;;;2.00;99.90;;;;;;5094482;28;20192;-72
2022/12/04 05:08:10;;;;;;;59.00;27.27;;;1.90;99.90;;;;;;5094717;28;20167;-72
2022/12/04 05:10:36;;;;;;;58.30;26.83;;;2.00;99.90;;;;;;5094470;28;20216;-71
2022/12/04 05:13:02;;;;;;;55.87;25.67;;;2.00;99.90;;;;;;5094089;28;20638;-73
2022/12/04 05:15:27;;;;;;;53.53;22.77;;;1.90;99.90;;;;;;5094905;28;20172;-71
2022/12/04 05:17:53;;;;;;;58.97;26.17;;;1.90;99.90;;;;;;5093189;28;20543;-71
2022/12/04 05:20:18;;;;;;;59.93;28.17;;;1.90;99.90;;;;;;5094707;28;20209;-72
2022/12/04 05:22:44;;;;;;;61.37;28.17;;;1.90;99.90;;;;;;5094248;28;20260;-71
2022/12/04 05:25:10;;;;;;;58.57;26.87;;;1.90;99.90;;;;;;5094459;28;20179;-72
2022/12/04 05:27:35;;;;;;;55.60;26.73;;;1.90;99.90;;;;;;5094164;28;20175;-72
2022/12/04 05:30:01;;;;;;;58.13;28.40;;;1.90;99.90;;;;;;5094647;28;20182;-71
2022/12/04 05:32:28;;;;;;;50.87;22.40;;;2.00;99.90;;;;;;5094385;28;20179;-72
2022/12/04 05:34:54;;;;;;;48.30;23.60;;;1.90;99.90;;;;;;5094138;28;20226;-71
2022/12/04 05:37:21;;;;;;;57.77;27.57;;;1.90;99.90;;;;;;5094289;28;20265;-72
2022/12/04 05:39:47;;;;;;;40.03;19.10;;;1.90;99.90;;;;;;5075684;28;20232;-72
2022/12/04 05:42:13;;;;;;;57.30;27.40;;;1.90;99.90;;;;;;5093953;28;20685;-72
2022/12/04 05:44:39;;;;;;;66.77;28.63;;;1.80;99.90;;;;;;5093844;28;20635;-72
2022/12/04 05:47:04;;;;;;;59.87;26.90;;;1.90;99.90;;;;;;5094236;28;20176;-71
2022/12/04 05:49:34;;;;;;;62.73;28.33;;;1.80;99.90;;;;;;5094007;28;20531;-72
2022/12/04 05:52:00;;;;;;;55.70;26.00;;;1.90;99.90;;;;;;5093977;28;20171;-71
2022/12/04 05:54:26;;;;;;;62.63;29.07;;;1.90;99.90;;;;;;5093142;28;20261;-72
2022/12/04 05:56:52;;;;;;;61.53;29.63;;;1.90;99.90;;;;;;5093848;28;20250;-72
2022/12/04 05:59:18;;;;;;;61.63;28.00;;;1.90;99.90;;;;;;5093244;28;20202;-71
2022/12/04 06:01:44;;;;;;;44.77;20.53;;;1.90;99.90;;;;;;5093623;28;20297;-71
2022/12/04 06:04:10;;;;;;;67.57;30.00;;;1.80;99.90;;;;;;5075653;28;20183;-71
2022/12/04 06:06:36;;;;;;;61.80;29.80;;;1.80;99.90;;;;;;5093696;28;20175;-72
2022/12/04 06:09:03;;;;;;;60.27;27.50;;;1.80;99.90;;;;;;5093730;28;20323;-72
2022/12/04 06:11:32;;;;;;;64.93;29.17;;;1.90;99.90;;;;;;5093194;28;20693;-71
2022/12/04 06:13:59;;;;;;;62.37;28.00;;;1.90;99.90;;;;;;5093190;28;20719;-72
2022/12/04 06:16:28;;;;;;;59.93;28.20;;;1.90;99.90;;;;;;5075672;28;20217;-71
2022/12/04 06:18:57;;;;;;;52.17;23.43;;;2.00;99.90;;;;;;5093629;28;20178;-71
2022/12/04 06:21:26;;;;;;;59.13;27.70;;;1.90;99.90;;;;;;5092940;28;20205;-72
2022/12/04 06:23:53;;;;;;;53.83;25.67;;;1.90;99.90;;;;;;5093128;28;20183;-72
2022/12/04 06:26:19;;;;;;;57.93;24.67;;;1.90;99.90;;;;;;5093347;28;20167;-71
2022/12/04 06:28:44;;;;;;;62.53;30.80;;;1.90;99.90;;;;;;5093279;28;20175;-71
2022/12/04 06:31:12;;;;;;;51.57;23.43;;;1.90;99.90;;;;;;5093146;28;20254;-71
2022/12/04 06:33:38;;;;;;;64.37;29.93;;;1.90;99.90;;;;;;5093276;28;20187;-71
2022/12/04 06:36:15;;;;;;;51.77;23.23;;;1.80;99.90;;;;;;5093091;28;20225;-71
2022/12/04 06:38:41;;;;;;;54.73;22.87;;;1.80;99.90;;;;;;5093078;28;20206;-71
2022/12/04 06:41:10;;;;;;;52.50;21.20;;;1.80;99.90;;;;;;5093114;28;20196;-72
2022/12/04 06:43:35;;;;;;;62.57;28.23;;;1.90;99.90;;;;;;5092954;28;20649;-72
2022/12/04 06:46:07;;;;;;;66.30;31.47;;;1.80;99.90;;;;;;5092990;28;20178;-72
2022/12/04 06:48:33;;;;;;;61.40;29.60;;;1.90;99.90;;;;;;5093211;28;20174;-71
2022/12/04 06:51:04;;;;;;;53.30;24.43;;;1.90;99.90;;;;;;5092744;28;20634;-72
2022/12/04 06:53:31;;;;;;;58.10;25.73;;;1.80;99.90;;;;;;5092772;28;20220;-73
2022/12/04 06:55:59;;;;;;;58.83;25.67;;;1.90;99.90;;;;;;5093057;28;20184;-72
2022/12/04 06:58:26;;;;;;;41.57;19.37;;;1.90;99.90;;;;;;5092282;28;20190;-73
2022/12/04 07:00:52;;;;;;;59.37;28.03;;;1.80;99.90;;;;;;5091474;28;20171;-72
2022/12/04 07:03:18;;;;;;;61.67;29.60;;;1.90;99.90;;;;;;5091515;28;20214;-71
2022/12/04 07:05:43;;;;;;;62.03;29.83;;;1.80;99.90;;;;;;5092420;28;20171;-72
2022/12/04 07:08:09;;;;;;;54.20;22.40;;;1.90;99.90;;;;;;5092714;28;20175;-72
2022/12/04 07:10:35;;;;;;;66.83;28.97;;;2.00;99.90;;;;;;5092455;28;20219;-72
2022/12/04 07:13:01;;;;;;;56.73;26.07;;;1.90;99.90;;;;;;5092446;28;20225;-71
2022/12/04 07:15:27;;;;;;;53.90;26.97;;;1.90;99.90;;;;;;5092396;28;20203;-72
2022/12/04 07:17:53;;;;;;;55.80;22.67;;;1.90;99.90;;;;;;5092982;28;20191;-72
2022/12/04 07:20:18;;;;;;;63.87;31.53;;;1.90;99.90;;;;;;5092790;28;20246;-71
2022/12/04 07:22:44;;;;;;;59.37;25.57;;;1.90;99.90;;;;;;5092260;28;20199;-72
2022/12/04 07:25:10;;;;;;;57.70;29.23;;;1.90;99.90;;;;;;5092567;28;20160;-71
2022/12/04 07:27:35;;;;;;;58.67;30.40;;;1.80;99.90;;;;;;5092553;28;20199;-72
2022/12/04 07:30:01;;;;;;;65.20;31.47;;;2.00;99.90;;;;;;5092615;28;20763;-72
2022/12/04 07:32:26;;;;;;;64.20;30.10;;;1.90;99.90;;;;;;5093426;28;20173;-72
2022/12/04 07:34:52;;;;;;;64.23;29.13;;;2.00;99.90;;;;;;5096455;28;20254;-72
2022/12/04 07:37:17;;;;;;;62.20;29.60;;;2.00;99.90;;;;;;5096062;28;20683;-71
2022/12/04 07:39:43;;;;;;;64.17;29.90;;;1.90;99.90;;;;;;5096481;28;20179;-72
2022/12/04 07:42:08;;;;;;;64.23;29.10;;;2.00;99.90;;;;;;5096354;28;20253;-72
2022/12/04 07:44:34;;;;;;;59.70;28.77;;;2.00;99.90;;;;;;5096045;28;20188;-72
2022/12/04 07:47:00;;;;;;;49.30;23.47;;;2.00;99.90;;;;;;5096166;28;20168;-72
2022/12/04 07:49:25;;;;;;;63.00;28.50;;;2.00;99.90;;;;;;5096206;28;20241;-71
2022/12/04 07:51:51;;;;;;;43.87;18.40;;;2.00;99.90;;;;;;5094304;28;20760;-71
2022/12/04 07:54:16;;;;;;;61.30;29.13;;;2.00;99.90;;;;;;5095924;28;20175;-72
2022/12/04 07:56:42;;;;;;;63.57;29.83;;;2.00;99.90;;;;;;5096071;28;20186;-73
2022/12/04 07:59:08;;;;;;;46.23;21.50;;;2.10;99.90;;;;;;5095490;28;20168;-73
2022/12/04 08:01:33;;;;;;;64.17;29.73;;;2.00;99.90;;;;;;5095862;28;20223;-72
2022/12/04 08:04:01;;;;;;;54.27;24.40;;;2.10;99.90;;;;;;5096077;28;20300;-72
2022/12/04 08:06:31;;;;;;;46.50;22.13;;;2.00;99.90;;;;;;5095578;28;20172;-72
2022/12/04 08:08:56;;;;;;;56.50;24.93;;;2.00;99.90;;;;;;5096030;28;20176;-72
2022/12/04 08:11:24;;;;;;;64.20;30.23;;;2.00;99.90;;;;;;5095344;28;20231;-72
2022/12/04 08:13:58;;;;;;;58.17;26.27;;;2.00;99.90;;;;;;5077363;28;20175;-71
2022/12/04 08:16:25;;;;;;;58.10;25.67;;;2.00;99.90;;;;;;5095483;28;20602;-72
2022/12/04 08:18:52;;;;;;;61.63;28.23;;;2.00;99.90;;;;;;5095485;28;20207;-72
2022/12/04 08:21:20;;;;;;;62.47;29.47;;;2.00;99.90;;;;;;5095156;28;20164;-72
2022/12/04 08:23:46;;;;;;;57.63;26.03;;;2.20;99.90;;;;;;5095699;28;20206;-72
2022/12/04 08:26:13;;;;;;;60.70;28.73;;;2.10;99.90;;;;;;5095147;28;20627;-72
2022/12/04 08:28:39;;;;;;;61.07;29.50;;;2.10;99.90;;;;;;5095335;28;20191;-72
2022/12/04 08:31:13;;;;;;;61.07;29.33;;;2.20;99.90;;;;;;5095464;28;20164;-72
2022/12/04 08:33:41;;;;;;;51.30;22.30;;;2.20;99.90;;;;;;5095581;28;20619;-72
2022/12/04 08:36:09;;;;;;;66.50;29.00;;;2.10;99.90;;;;;;5094467;28;20198;-72
2022/12/04 08:38:35;;;;;;;57.73;25.80;;;2.10;99.90;;;;;;5095016;28;20168;-72
2022/12/04 08:41:02;;;;;;;62.50;30.10;;;2.10;99.90;;;;;;5095161;28;20203;-73
2022/12/04 08:43:28;;;;;;;48.93;21.90;;;2.20;99.90;;;;;;5094378;28;20227;-72
2022/12/04 08:45:59;;;;;;;57.43;29.47;;;2.10;99.90;;;;;;5094881;28;20261;-72
2022/12/04 08:48:26;;;;;;;57.77;25.07;;;2.10;99.90;;;;;;5094706;28;20221;-72
2022/12/04 08:50:51;;;;;;;57.27;23.93;;;2.20;99.90;;;;;;5094926;28;20170;-72
2022/12/04 08:53:18;;;;;;;57.67;26.60;;;2.10;99.90;;;;;;5094554;28;20175;-73
2022/12/04 08:55:43;;;;;;;58.53;28.07;;;2.10;99.90;;;;;;5094556;28;20179;-73
2022/12/04 08:58:09;;;;;;;64.10;28.97;;;2.20;99.90;;;;;;5094289;28;20741;-73
2022/12/04 09:00:35;;;;;;;57.03;26.20;;;2.20;99.90;;;;;;5094527;28;20177;-73
2022/12/04 09:03:00;;;;;;;50.37;23.00;;;2.20;99.90;;;;;;5094720;28;20238;-72
2022/12/04 09:05:26;;;;;;;48.27;22.73;;;2.20;99.90;;;;;;5094531;28;20187;-73
2022/12/04 09:07:51;;;;;;;64.47;30.03;;;2.20;99.90;;;;;;5094247;28;20565;-72
2022/12/04 09:10:17;;;;;;;62.03;29.47;;;2.20;99.90;;;;;;5094360;28;20228;-73
2022/12/04 09:12:42;;;;;;;47.67;21.73;;;2.20;99.90;;;;;;5093337;28;20536;-73
2022/12/04 09:15:10;;;;;;;44.33;19.67;;;2.10;99.90;;;;;;5094719;28;20637;-74
2022/12/04 09:17:35;;;;;;;59.87;27.60;;;2.20;99.90;;;;;;5094108;28;20206;-73
2022/12/04 09:20:03;;;;;;;58.90;29.43;;;2.30;99.90;;;;;;5094135;28;20540;-73
2022/12/04 09:22:28;;;;;;;59.63;28.57;;;2.20;99.90;;;;;;5093837;28;20240;-72
2022/12/04 09:24:54;;;;;;;58.23;27.93;;;2.30;99.90;;;;;;5094309;28;20539;-73
2022/12/04 09:27:20;;;;;;;61.30;29.23;;;2.30;99.90;;;;;;5093694;28;20541;-72
2022/12/04 09:29:46;;;;;;;54.50;24.73;;;2.20;99.90;;;;;;5094604;28;20220;-73
2022/12/04 09:32:11;;;;;;;44.87;23.57;;;2.30;99.90;;;;;;5092971;28;20171;-72
2022/12/04 09:34:37;;;;;;;38.00;17.60;;;2.40;99.90;;;;;;5094085;28;20217;-73
2022/12/04 09:37:02;;;;;;;50.83;25.63;;;2.30;99.90;;;;;;5093728;28;20179;-73
2022/12/04 09:39:28;;;;;;;57.03;26.27;;;2.40;99.90;;;;;;5094189;28;20172;-73
2022/12/04 09:42:03;;;;;;;56.87;26.40;;;2.50;99.90;;;;;;5094025;28;20207;-72
2022/12/04 09:44:37;;;;;;;56.53;28.93;;;2.50;99.90;;;;;;5093747;28;20244;-72
2022/12/04 09:47:19;;;;;;;49.43;25.60;;;2.50;99.90;;;;;;5093555;28;20213;-73
2022/12/04 09:49:51;;;;;;;35.10;18.30;;;2.40;99.90;;;;;;5093572;28;20732;-72
2022/12/04 09:52:25;;;;;;;50.93;23.53;;;2.40;99.90;;;;;;5093693;28;20518;-72
2022/12/04 09:54:53;;;;;;;48.27;22.20;;;2.40;99.90;;;;;;5093185;28;20262;-72
2022/12/04 09:57:37;;;;;;;51.93;25.57;;;2.40;99.90;;;;;;5092869;28;20316;-72
2022/12/04 10:00:05;;;;;;;55.47;28.90;;;2.40;99.90;;;;;;5093708;28;20318;-72
2022/12/04 10:02:34;;;;;;;56.53;25.93;;;2.50;99.90;;;;;;5093109;28;20211;-73
2022/12/04 10:05:00;;;;;;;49.10;25.23;;;2.50;99.90;;;;;;5093137;28;20172;-73
2022/12/04 10:07:31;;;;;;;42.60;22.97;;;2.60;99.90;;;;;;5093611;28;20385;-73
2022/12/04 10:10:17;;;;;;;51.83;26.80;;;2.60;99.90;;;;;;5092843;28;20230;-73
2022/12/04 10:12:56;;;;;;;46.63;22.10;;;2.60;99.90;;;;;;5075248;28;20275;-72
2022/12/04 10:15:22;;;;;;;43.20;23.23;;;2.70;99.90;;;;;;5093032;28;20172;-73
2022/12/04 10:18:07;;;;;;;49.70;26.00;;;2.60;99.90;;;;;;5074718;28;20642;-72
2022/12/04 10:21:02;;;;;;;49.40;24.10;;;2.60;99.90;;;;;;5092915;28;20647;-73
2022/12/04 10:24:05;;;;;;;47.07;25.07;;;2.60;99.90;;;;;;5093215;28;20235;-75
2022/12/04 10:26:38;;;;;;;47.03;24.00;;;2.70;99.90;;;;;;5093385;28;20167;-72
2022/12/04 10:29:07;;;;;;;43.37;21.90;;;2.60;99.90;;;;;;5092883;28;20186;-72
2022/12/04 10:31:36;;;;;;;43.50;22.73;;;2.60;99.90;;;;;;5092901;28;20218;-72
2022/12/04 10:34:12;;;;;;;45.77;24.30;;;2.50;99.90;;;;;;5092786;28;20177;-72
2022/12/04 10:36:40;;;;;;;40.53;20.27;;;2.50;99.90;;;;;;5093142;28;20213;-73
2022/12/04 10:39:13;;;;;;;47.90;25.10;;;2.50;99.90;;;;;;5092771;28;20164;-73
2022/12/04 10:41:50;;;;;;;43.90;21.90;;;2.60;99.90;;;;;;5074893;28;20294;-73
2022/12/04 10:44:17;;;;;;;44.40;24.33;;;2.60;99.90;;;;;;5092769;28;20190;-74
2022/12/04 10:46:43;;;;;;;48.57;25.83;;;2.50;99.90;;;;;;5093053;28;20238;-73
2022/12/04 10:49:16;;;;;;;38.70;20.57;;;2.60;99.90;;;;;;5092175;28;20246;-73
2022/12/04 10:51:43;;;;;;;47.40;25.30;;;2.60;99.90;;;;;;5093128;28;20168;-72
2022/12/04 10:54:38;;;;;;;45.67;25.60;;;2.60;99.90;;;;;;5092983;28;20194;-73
2022/12/04 10:57:09;;;;;;;41.47;21.40;;;2.70;99.90;;;;;;5092249;28;20172;-74
2022/12/04 10:59:47;;;;;;;42.60;24.37;;;2.70;99.90;;;;;;5092039;28;20309;-73
2022/12/04 11:02:15;;;;;;;56.23;29.47;;;2.70;99.90;;;;;;5092494;28;20199;-74
2022/12/04 11:04:41;;;;;;;41.17;21.57;;;2.70;99.90;;;;;;5092691;28;20247;-73
2022/12/04 11:07:20;;;;;;;42.27;23.30;;;2.80;99.90;;;;;;5093936;28;20678;-72
2022/12/04 11:09:58;;;;;;;39.87;22.27;;;2.60;99.90;;;;;;5096428;28;20290;-72
2022/12/04 11:12:24;;;;;;;31.40;15.80;;;2.80;99.90;;;;;;5096603;28;20203;-72
2022/12/04 11:15:01;;;;;;;41.37;22.30;;;2.70;99.90;;;;;;5095053;28;20214;-72
2022/12/04 11:17:27;;;;;;;37.40;19.83;;;2.70;99.90;;;;;;5096683;28;20175;-72
2022/12/04 11:20:06;;;;;;;32.90;15.80;;;2.60;99.90;;;;;;5096905;28;20196;-72
2022/12/04 11:22:36;;;;;;;39.00;21.07;;;2.60;99.90;;;;;;5096354;28;20295;-71
2022/12/04 11:25:01;;;;;;;39.77;23.27;;;2.60;99.90;;;;;;5096367;28;20203;-72
2022/12/04 11:27:34;;;;;;;42.43;23.33;;;2.60;99.90;;;;;;5096037;28;20199;-72
2022/12/04 11:30:02;;;;;;;43.93;25.13;;;2.60;99.90;;;;;;5096430;28;20172;-72
2022/12/04 11:32:31;;;;;;;34.23;19.00;;;2.70;99.90;;;;;;5096488;28;20171;-73
2022/12/04 11:35:13;;;;;;;37.10;19.57;;;2.70;99.90;;;;;;5078376;28;20662;-73
2022/12/04 11:37:38;;;;;;;39.70;19.30;;;2.60;99.90;;;;;;5078291;28;20546;-72
2022/12/04 11:40:13;;;;;;;30.13;17.30;;;2.50;99.90;;;;;;5096236;28;20179;-73
2022/12/04 11:42:39;;;;;;;43.80;23.47;;;2.60;99.90;;;;;;5096179;28;20301;-72
2022/12/04 11:45:22;;;;;;;41.10;24.07;;;2.60;99.90;;;;;;5095668;28;20669;-72
2022/12/04 11:48:03;;;;;;;38.90;21.57;;;2.70;99.90;;;;;;5096201;28;20182;-72
2022/12/04 11:50:42;;;;;;;42.33;20.93;;;2.70;99.90;;;;;;5095769;28;20185;-72
2022/12/04 11:53:15;;;;;;;35.73;20.27;;;2.70;99.90;;;;;;5096136;28;20626;-72
2022/12/04 11:56:02;;;;;;;37.13;17.33;;;2.60;99.90;;;;;;5096067;28;20172;-72
2022/12/04 11:58:43;;;;;;;31.37;16.73;;;2.50;99.90;;;;;;5094722;28;20160;-72
2022/12/04 12:01:27;;;;;;;33.80;18.57;;;2.60;99.90;;;;;;5095331;28;20184;-74
2022/12/04 12:04:19;;;;;;;41.30;21.73;;;2.60;99.90;;;;;;5095757;28;20272;-71
2022/12/04 12:07:02;;;;;;;39.67;22.23;;;2.60;99.90;;;;;;5095797;28;20174;-72
2022/12/04 12:09:47;;;;;;;38.63;21.70;;;2.80;99.90;;;;;;5095025;28;20167;-72
2022/12/04 12:12:25;;;;;;;33.77;20.50;;;2.80;99.90;;;;;;5095221;28;20241;-72
2022/12/04 12:15:18;;;;;;;32.83;19.33;;;2.70;99.90;;;;;;5095624;28;20163;-71
2022/12/04 12:17:50;;;;;;;38.97;21.47;;;2.70;99.90;;;;;;5095302;28;20184;-71
2022/12/04 12:20:28;;;;;;;41.83;22.40;;;2.60;99.90;;;;;;5094583;28;20164;-71
2022/12/04 12:23:16;;;;;;;34.70;19.50;;;2.70;99.90;;;;;;5094728;28;20249;-71
2022/12/04 12:26:01;;;;;;;40.63;24.60;;;2.70;99.90;;;;;;5095683;28;20168;-71
2022/12/04 12:29:04;;;;;;;38.90;20.67;;;2.80;99.90;;;;;;5095323;28;20168;-70
2022/12/04 12:32:07;;;;;;;34.47;19.03;;;2.90;99.90;;;;;;5094661;28;20217;-72
2022/12/04 12:34:33;;;;;;;38.07;22.27;;;2.80;99.90;;;;;;5095387;28;20176;-72
2022/12/04 12:37:02;;;;;;;36.33;21.87;;;2.60;99.90;;;;;;5095076;28;20627;-70
2022/12/04 12:39:48;;;;;;;33.90;19.80;;;2.80;99.90;;;;;;5094645;28;20175;-72
2022/12/04 12:42:23;;;;;;;31.23;15.73;;;2.80;99.90;;;;;;5094402;28;20701;-72
2022/12/04 12:45:02;;;;;;;34.20;19.43;;;2.80;99.90;;;;;;5095113;28;20191;-71
2022/12/04 12:47:36;;;;;;;32.37;18.93;;;2.80;99.90;;;;;;5095001;28;20172;-72
2022/12/04 12:50:18;;;;;;;26.67;16.33;;;2.90;99.90;;;;;;5094796;28;20176;-72
2022/12/04 12:52:50;;;;;;;28.67;16.83;;;2.80;99.90;;;;;;5094713;28;20164;-73
2022/12/04 12:55:32;;;;;;;28.60;18.03;;;2.70;99.90;;;;;;5094394;28;20168;-72
2022/12/04 12:58:10;;;;;;;28.87;16.23;;;2.70;99.90;;;;;;5094356;28;20213;-73
2022/12/04 13:00:43;;;;;;;29.63;17.90;;;2.70;99.90;;;;;;5094851;28;20702;-71
2022/12/04 13:03:28;;;;;;;26.70;16.97;;;2.70;99.90;;;;;;5094498;28;20215;-73
2022/12/04 13:05:59;;;;;;;25.37;14.63;;;2.70;99.90;;;;;;5093943;28;20193;-73
2022/12/04 13:08:31;;;;;;;18.03;9.80;;;2.70;99.90;;;;;;5094431;28;20214;-72